sensor_id;sensor_type;location;lat;lon;timestamp;pressure;altitude;pressure_sealevel;temperature;humidity
37291;BME280;23175;-33.706;151.094;2024-01-10T00:00:58;99765.30;;;22.11;53.58
37291;BME280;23175;-33.706;151.094;2024-01-10T00:03:29;99758.55;;;23.20;50.96
37291;BME280;23175;-33.706;151.094;2024-01-10T00:05:59;99757.33;;;21.65;51.73
37291;BME280;23175;-33.706;151.094;2024-01-10T00:08:29;99753.52;;;22.95;50.17
37291;BME280;23175;-33.706;151.094;2024-01-10T00:10:59;99746.07;;;25.03;46.96
37291;BME280;23175;-33.706;151.094;2024-01-10T00:13:30;99748.47;;;21.88;51.51
37291;BME280;23175;-33.706;151.094;2024-01-10T00:16:00;99741.58;;;22.37;50.59
37291;BME280;23175;-33.706;151.094;2024-01-10T00:18:31;99738.80;;;22.33;51.43
37291;BME280;23175;-33.706;151.094;2024-01-10T00:21:01;99733.08;;;25.19;45.74
37291;BME280;23175;-33.706;151.094;2024-01-10T00:23:30;99738.33;;;20.74;54.36
37291;BME280;23175;-33.706;151.094;2024-01-10T00:26:01;99740.25;;;21.51;53.72
37291;BME280;23175;-33.706;151.094;2024-01-10T00:28:31;99735.02;;;21.06;53.46
37291;BME280;23175;-33.706;151.094;2024-01-10T00:31:01;99732.20;;;21.45;52.38
37291;BME280;23175;-33.706;151.094;2024-01-10T00:33:36;99730.38;;;24.04;48.73
37291;BME280;23175;-33.706;151.094;2024-01-10T00:36:13;99733.02;;;23.41;49.00
37291;BME280;23175;-33.706;151.094;2024-01-10T00:38:44;99737.40;;;24.10;47.79
37291;BME280;23175;-33.706;151.094;2024-01-10T00:41:14;99741.17;;;21.64;50.79
37291;BME280;23175;-33.706;151.094;2024-01-10T00:43:44;99739.95;;;22.52;50.07
37291;BME280;23175;-33.706;151.094;2024-01-10T00:46:14;99749.27;;;22.27;49.90
37291;BME280;23175;-33.706;151.094;2024-01-10T00:48:44;99741.70;;;19.62;54.60
37291;BME280;23175;-33.706;151.094;2024-01-10T00:51:14;99742.28;;;22.39;50.16
37291;BME280;23175;-33.706;151.094;2024-01-10T00:53:44;99739.46;;;22.68;49.87
37291;BME280;23175;-33.706;151.094;2024-01-10T00:56:14;99737.11;;;23.42;48.88
37291;BME280;23175;-33.706;151.094;2024-01-10T00:58:44;99742.80;;;20.94;53.26
37291;BME280;23175;-33.706;151.094;2024-01-10T01:01:14;99745.71;;;23.61;49.66
37291;BME280;23175;-33.706;151.094;2024-01-10T01:03:44;99748.03;;;19.85;55.61
37291;BME280;23175;-33.706;151.094;2024-01-10T01:06:14;99739.91;;;24.02;48.43
37291;BME280;23175;-33.706;151.094;2024-01-10T01:08:44;99739.49;;;21.53;52.23
37291;BME280;23175;-33.706;151.094;2024-01-10T01:11:14;99736.98;;;25.18;46.11
37291;BME280;23175;-33.706;151.094;2024-01-10T01:13:45;99738.66;;;23.01;50.34
37291;BME280;23175;-33.706;151.094;2024-01-10T01:16:15;99735.27;;;23.08;49.82
37291;BME280;23175;-33.706;151.094;2024-01-10T01:18:45;99733.25;;;24.94;47.03
37291;BME280;23175;-33.706;151.094;2024-01-10T01:21:15;99735.18;;;24.25;47.30
37291;BME280;23175;-33.706;151.094;2024-01-10T01:23:50;99742.34;;;22.17;50.59
37291;BME280;23175;-33.706;151.094;2024-01-10T01:26:20;99728.21;;;23.95;47.05
37291;BME280;23175;-33.706;151.094;2024-01-10T01:28:50;99727.88;;;21.42;52.63
37291;BME280;23175;-33.706;151.094;2024-01-10T01:31:20;99726.14;;;22.32;51.34
37291;BME280;23175;-33.706;151.094;2024-01-10T01:33:50;99720.22;;;22.98;51.83
37291;BME280;23175;-33.706;151.094;2024-01-10T01:36:20;99710.68;;;22.64;51.74
37291;BME280;23175;-33.706;151.094;2024-01-10T01:38:50;99706.95;;;22.86;50.62
37291;BME280;23175;-33.706;151.094;2024-01-10T01:41:20;99705.02;;;23.77;48.55
37291;BME280;23175;-33.706;151.094;2024-01-10T01:43:50;99709.66;;;21.62;51.53
37291;BME280;23175;-33.706;151.094;2024-01-10T01:46:20;99698.14;;;24.71;46.97
37291;BME280;23175;-33.706;151.094;2024-01-10T01:48:51;99698.80;;;21.37;51.49
37291;BME280;23175;-33.706;151.094;2024-01-10T01:51:22;99693.46;;;23.98;48.58
37291;BME280;23175;-33.706;151.094;2024-01-10T01:53:52;99688.61;;;23.39;48.93
37291;BME280;23175;-33.706;151.094;2024-01-10T01:56:23;99682.70;;;23.21;48.88
37291;BME280;23175;-33.706;151.094;2024-01-10T01:58:54;99687.70;;;21.74;53.47
37291;BME280;23175;-33.706;151.094;2024-01-10T02:01:25;99684.35;;;23.13;50.66
37291;BME280;23175;-33.706;151.094;2024-01-10T02:03:57;99679.59;;;21.60;52.36
37291;BME280;23175;-33.706;151.094;2024-01-10T02:06:29;99674.91;;;25.47;46.71
37291;BME280;23175;-33.706;151.094;2024-01-10T02:08:59;99679.27;;;24.35;47.37
37291;BME280;23175;-33.706;151.094;2024-01-10T02:11:31;99670.11;;;23.22;49.15
37291;BME280;23175;-33.706;151.094;2024-01-10T02:14:01;99670.86;;;22.79;51.28
37291;BME280;23175;-33.706;151.094;2024-01-10T02:16:31;99664.00;;;24.38;47.35
37291;BME280;23175;-33.706;151.094;2024-01-10T02:19:01;99659.26;;;22.49;50.78
37291;BME280;23175;-33.706;151.094;2024-01-10T02:21:46;99647.60;;;25.63;46.68
37291;BME280;23175;-33.706;151.094;2024-01-10T02:24:16;99648.65;;;24.37;47.42
37291;BME280;23175;-33.706;151.094;2024-01-10T02:26:46;99640.98;;;23.27;49.97
37291;BME280;23175;-33.706;151.094;2024-01-10T02:29:17;99643.13;;;23.72;49.06
37291;BME280;23175;-33.706;151.094;2024-01-10T02:31:48;99641.90;;;23.51;50.22
37291;BME280;23175;-33.706;151.094;2024-01-10T02:34:18;99645.99;;;23.32;50.83
37291;BME280;23175;-33.706;151.094;2024-01-10T02:36:48;99643.55;;;23.10;50.78
37291;BME280;23175;-33.706;151.094;2024-01-10T02:39:22;99645.44;;;23.31;50.03
37291;BME280;23175;-33.706;151.094;2024-01-10T02:41:52;99632.12;;;23.22;51.11
37291;BME280;23175;-33.706;151.094;2024-01-10T02:44:23;99628.19;;;24.42;48.82
37291;BME280;23175;-33.706;151.094;2024-01-10T02:46:53;99635.20;;;22.17;51.94
37291;BME280;23175;-33.706;151.094;2024-01-10T02:49:24;99640.80;;;20.73;55.86
37291;BME280;23175;-33.706;151.094;2024-01-10T02:51:54;99634.94;;;24.17;50.40
37291;BME280;23175;-33.706;151.094;2024-01-10T02:54:25;99630.72;;;24.16;50.44
37291;BME280;23175;-33.706;151.094;2024-01-10T02:56:55;99628.65;;;21.23;53.62
37291;BME280;23175;-33.706;151.094;2024-01-10T02:59:25;99616.56;;;23.96;50.48
37291;BME280;23175;-33.706;151.094;2024-01-10T03:01:55;99619.90;;;25.06;48.15
37291;BME280;23175;-33.706;151.094;2024-01-10T03:04:25;99629.25;;;23.32;51.06
37291;BME280;23175;-33.706;151.094;2024-01-10T03:06:55;99620.20;;;22.89;51.58
37291;BME280;23175;-33.706;151.094;2024-01-10T03:09:25;99611.40;;;24.99;48.65
37291;BME280;23175;-33.706;151.094;2024-01-10T03:11:56;99613.08;;;26.03;45.63
37291;BME280;23175;-33.706;151.094;2024-01-10T03:14:27;99607.87;;;24.28;48.39
37291;BME280;23175;-33.706;151.094;2024-01-10T03:16:57;99605.87;;;23.92;50.06
37291;BME280;23175;-33.706;151.094;2024-01-10T03:19:27;99609.31;;;21.73;53.96
37291;BME280;23175;-33.706;151.094;2024-01-10T03:21:57;99609.46;;;24.58;49.52
37291;BME280;23175;-33.706;151.094;2024-01-10T03:24:28;99613.19;;;25.31;47.58
37291;BME280;23175;-33.706;151.094;2024-01-10T03:26:58;99608.29;;;25.00;47.60
37291;BME280;23175;-33.706;151.094;2024-01-10T03:29:30;99614.74;;;25.29;47.03
37291;BME280;23175;-33.706;151.094;2024-01-10T03:31:59;99606.41;;;24.42;49.19
37291;BME280;23175;-33.706;151.094;2024-01-10T03:34:29;99597.67;;;26.04;45.69
37291;BME280;23175;-33.706;151.094;2024-01-10T03:36:59;99596.61;;;25.63;45.21
37291;BME280;23175;-33.706;151.094;2024-01-10T03:39:30;99597.91;;;25.69;45.75
37291;BME280;23175;-33.706;151.094;2024-01-10T03:42:00;99590.18;;;24.39;48.68
37291;BME280;23175;-33.706;151.094;2024-01-10T03:44:36;99580.73;;;24.87;47.81
37291;BME280;23175;-33.706;151.094;2024-01-10T03:47:06;99580.19;;;23.68;50.30
37291;BME280;23175;-33.706;151.094;2024-01-10T03:49:36;99573.47;;;24.71;48.34
37291;BME280;23175;-33.706;151.094;2024-01-10T03:52:11;99574.45;;;22.87;52.02
37291;BME280;23175;-33.706;151.094;2024-01-10T03:54:41;99565.53;;;24.14;49.22
37291;BME280;23175;-33.706;151.094;2024-01-10T03:57:11;99559.23;;;24.82;47.30
37291;BME280;23175;-33.706;151.094;2024-01-10T03:59:47;99558.77;;;23.71;49.53
37291;BME280;23175;-33.706;151.094;2024-01-10T04:02:18;99556.83;;;22.85;50.64
37291;BME280;23175;-33.706;151.094;2024-01-10T04:04:48;99551.88;;;23.52;51.12
37291;BME280;23175;-33.706;151.094;2024-01-10T04:07:18;99549.53;;;24.95;47.36
37291;BME280;23175;-33.706;151.094;2024-01-10T04:09:48;99543.04;;;26.30;46.13
37291;BME280;23175;-33.706;151.094;2024-01-10T04:12:19;99539.31;;;23.37;49.28
37291;BME280;23175;-33.706;151.094;2024-01-10T04:14:49;99540.61;;;22.69;50.64
37291;BME280;23175;-33.706;151.094;2024-01-10T04:17:19;99548.17;;;24.90;47.38
37291;BME280;23175;-33.706;151.094;2024-01-10T04:19:54;99546.36;;;24.37;47.81
37291;BME280;23175;-33.706;151.094;2024-01-10T04:22:25;99543.78;;;24.63;47.45
37291;BME280;23175;-33.706;151.094;2024-01-10T04:25:01;99544.74;;;25.46;46.88
37291;BME280;23175;-33.706;151.094;2024-01-10T04:27:32;99542.40;;;24.73;48.33
37291;BME280;23175;-33.706;151.094;2024-01-10T04:30:03;99539.27;;;25.78;47.00
37291;BME280;23175;-33.706;151.094;2024-01-10T04:32:38;99537.57;;;23.68;49.66
37291;BME280;23175;-33.706;151.094;2024-01-10T04:35:08;99535.72;;;25.35;47.33
37291;BME280;23175;-33.706;151.094;2024-01-10T04:37:39;99533.25;;;26.08;45.76
37291;BME280;23175;-33.706;151.094;2024-01-10T04:40:15;99536.07;;;24.44;48.85
37291;BME280;23175;-33.706;151.094;2024-01-10T04:42:46;99542.56;;;24.23;49.63
37291;BME280;23175;-33.706;151.094;2024-01-10T04:45:16;99543.28;;;24.63;49.02
37291;BME280;23175;-33.706;151.094;2024-01-10T04:47:46;99540.96;;;22.68;52.33
37291;BME280;23175;-33.706;151.094;2024-01-10T04:50:17;99549.53;;;23.16;51.73
37291;BME280;23175;-33.706;151.094;2024-01-10T04:52:47;99549.62;;;24.55;50.00
37291;BME280;23175;-33.706;151.094;2024-01-10T04:55:17;99553.13;;;25.42;47.46
37291;BME280;23175;-33.706;151.094;2024-01-10T04:57:47;99554.09;;;24.31;49.26
37291;BME280;23175;-33.706;151.094;2024-01-10T05:00:18;99556.43;;;25.33;47.97
37291;BME280;23175;-33.706;151.094;2024-01-10T05:02:48;99551.38;;;24.92;49.02
37291;BME280;23175;-33.706;151.094;2024-01-10T05:05:18;99548.52;;;24.46;49.47
37291;BME280;23175;-33.706;151.094;2024-01-10T05:07:54;99552.01;;;25.13;48.09
37291;BME280;23175;-33.706;151.094;2024-01-10T05:10:24;99550.99;;;24.19;50.05
37291;BME280;23175;-33.706;151.094;2024-01-10T05:12:54;99556.09;;;25.85;46.73
37291;BME280;23175;-33.706;151.094;2024-01-10T05:15:25;99559.13;;;24.40;49.04
37291;BME280;23175;-33.706;151.094;2024-01-10T05:17:56;99554.78;;;25.58;47.90
37291;BME280;23175;-33.706;151.094;2024-01-10T05:20:26;99558.48;;;24.84;48.90
37291;BME280;23175;-33.706;151.094;2024-01-10T05:22:57;99557.02;;;23.05;51.55
37291;BME280;23175;-33.706;151.094;2024-01-10T05:25:27;99556.10;;;24.25;49.66
37291;BME280;23175;-33.706;151.094;2024-01-10T05:27:58;99551.95;;;24.33;50.90
37291;BME280;23175;-33.706;151.094;2024-01-10T05:30:28;99543.11;;;22.28;53.03
37291;BME280;23175;-33.706;151.094;2024-01-10T05:33:04;99540.64;;;24.06;49.63
37291;BME280;23175;-33.706;151.094;2024-01-10T05:35:34;99533.36;;;24.08;50.27
37291;BME280;23175;-33.706;151.094;2024-01-10T05:38:05;99525.92;;;22.42;52.87
37291;BME280;23175;-33.706;151.094;2024-01-10T05:40:35;99531.96;;;21.91;54.31
37291;BME280;23175;-33.706;151.094;2024-01-10T05:43:05;99537.22;;;24.90;49.48
37291;BME280;23175;-33.706;151.094;2024-01-10T05:45:35;99531.11;;;25.08;48.72
37291;BME280;23175;-33.706;151.094;2024-01-10T05:48:06;99524.32;;;23.71;50.95
37291;BME280;23175;-33.706;151.094;2024-01-10T05:50:36;99524.57;;;24.02;49.80
37291;BME280;23175;-33.706;151.094;2024-01-10T05:53:06;99519.58;;;25.68;47.32
37291;BME280;23175;-33.706;151.094;2024-01-10T05:55:41;99515.67;;;23.43;50.17
37291;BME280;23175;-33.706;151.094;2024-01-10T05:58:13;99510.85;;;23.69;50.38
37291;BME280;23175;-33.706;151.094;2024-01-10T06:00:43;99510.90;;;23.92;49.55
37291;BME280;23175;-33.706;151.094;2024-01-10T06:03:19;99506.36;;;23.34;51.41
37291;BME280;23175;-33.706;151.094;2024-01-10T06:05:49;99506.96;;;24.08;49.95
37291;BME280;23175;-33.706;151.094;2024-01-10T06:08:21;99503.18;;;23.21;51.70
37291;BME280;23175;-33.706;151.094;2024-01-10T06:10:52;99496.66;;;23.83;50.95
37291;BME280;23175;-33.706;151.094;2024-01-10T06:13:23;99488.91;;;22.07;54.18
37291;BME280;23175;-33.706;151.094;2024-01-10T06:15:52;99486.60;;;23.75;51.24
37291;BME280;23175;-33.706;151.094;2024-01-10T06:18:22;99478.43;;;23.43;52.57
37291;BME280;23175;-33.706;151.094;2024-01-10T06:20:53;99483.23;;;21.69;55.97
37291;BME280;23175;-33.706;151.094;2024-01-10T06:23:24;99485.69;;;21.36;57.66
37291;BME280;23175;-33.706;151.094;2024-01-10T06:25:54;99485.19;;;22.58;56.42
37291;BME280;23175;-33.706;151.094;2024-01-10T06:28:25;99471.50;;;23.43;53.92
37291;BME280;23175;-33.706;151.094;2024-01-10T06:30:55;99464.67;;;23.58;53.49
37291;BME280;23175;-33.706;151.094;2024-01-10T06:33:26;99467.24;;;21.44;56.99
37291;BME280;23175;-33.706;151.094;2024-01-10T06:35:57;99466.04;;;23.87;51.80
37291;BME280;23175;-33.706;151.094;2024-01-10T06:38:28;99479.71;;;21.44;57.39
37291;BME280;23175;-33.706;151.094;2024-01-10T06:40:58;99486.21;;;19.48;60.71
37291;BME280;23175;-33.706;151.094;2024-01-10T06:43:29;99492.52;;;19.79;62.48
37291;BME280;23175;-33.706;151.094;2024-01-10T06:46:01;99491.49;;;23.10;55.42
37291;BME280;23175;-33.706;151.094;2024-01-10T06:48:31;99493.81;;;22.29;57.23
37291;BME280;23175;-33.706;151.094;2024-01-10T06:51:01;99497.60;;;22.76;54.92
37291;BME280;23175;-33.706;151.094;2024-01-10T06:53:31;99489.81;;;23.43;53.72
37291;BME280;23175;-33.706;151.094;2024-01-10T06:56:01;99497.87;;;23.05;54.53
37291;BME280;23175;-33.706;151.094;2024-01-10T06:58:31;99506.92;;;24.49;51.76
37291;BME280;23175;-33.706;151.094;2024-01-10T07:01:01;99504.97;;;22.86;54.32
37291;BME280;23175;-33.706;151.094;2024-01-10T07:03:36;99502.22;;;22.88;53.68
37291;BME280;23175;-33.706;151.094;2024-01-10T07:06:07;99498.39;;;22.85;54.10
37291;BME280;23175;-33.706;151.094;2024-01-10T07:08:38;99496.68;;;23.35;52.90
37291;BME280;23175;-33.706;151.094;2024-01-10T07:11:08;99503.24;;;22.79;53.61
37291;BME280;23175;-33.706;151.094;2024-01-10T07:13:38;99500.00;;;21.07;57.36
37291;BME280;23175;-33.706;151.094;2024-01-10T07:16:10;99498.17;;;23.02;53.25
37291;BME280;23175;-33.706;151.094;2024-01-10T07:18:40;99499.02;;;22.54;55.75
37291;BME280;23175;-33.706;151.094;2024-01-10T07:21:10;99508.13;;;21.88;56.86
37291;BME280;23175;-33.706;151.094;2024-01-10T07:23:40;99516.85;;;19.45;62.71
37291;BME280;23175;-33.706;151.094;2024-01-10T07:26:13;99519.98;;;20.39;60.86
37291;BME280;23175;-33.706;151.094;2024-01-10T07:28:43;99523.92;;;22.07;57.85
37291;BME280;23175;-33.706;151.094;2024-01-10T07:31:14;99530.41;;;21.84;57.59
37291;BME280;23175;-33.706;151.094;2024-01-10T07:33:45;99528.81;;;22.56;56.23
37291;BME280;23175;-33.706;151.094;2024-01-10T07:36:15;99537.28;;;20.88;60.91
37291;BME280;23175;-33.706;151.094;2024-01-10T07:38:46;99549.03;;;21.42;59.60
37291;BME280;23175;-33.706;151.094;2024-01-10T07:41:16;99560.05;;;20.04;62.26
37291;BME280;23175;-33.706;151.094;2024-01-10T07:43:48;99570.72;;;23.20;55.65
37291;BME280;23175;-33.706;151.094;2024-01-10T07:46:20;99562.97;;;22.09;56.29
37291;BME280;23175;-33.706;151.094;2024-01-10T07:48:50;99561.74;;;21.88;56.62
37291;BME280;23175;-33.706;151.094;2024-01-10T07:51:21;99568.88;;;21.48;57.25
37291;BME280;23175;-33.706;151.094;2024-01-10T07:53:51;99581.56;;;20.84;59.14
37291;BME280;23175;-33.706;151.094;2024-01-10T07:56:21;99587.46;;;22.11;56.19
37291;BME280;23175;-33.706;151.094;2024-01-10T07:58:52;99585.76;;;21.85;56.65
37291;BME280;23175;-33.706;151.094;2024-01-10T08:01:22;99590.27;;;22.36;55.89
37291;BME280;23175;-33.706;151.094;2024-01-10T08:03:52;99602.28;;;21.75;56.66
37291;BME280;23175;-33.706;151.094;2024-01-10T08:06:22;99606.30;;;22.03;57.91
37291;BME280;23175;-33.706;151.094;2024-01-10T08:08:53;99607.77;;;21.36;58.42
37291;BME280;23175;-33.706;151.094;2024-01-10T08:11:23;99608.31;;;22.93;54.99
37291;BME280;23175;-33.706;151.094;2024-01-10T08:13:54;99608.57;;;23.88;53.00
37291;BME280;23175;-33.706;151.094;2024-01-10T08:16:26;99612.56;;;23.15;53.26
37291;BME280;23175;-33.706;151.094;2024-01-10T08:18:55;99621.73;;;23.49;53.65
37291;BME280;23175;-33.706;151.094;2024-01-10T08:21:27;99625.48;;;21.83;56.14
37291;BME280;23175;-33.706;151.094;2024-01-10T08:23:59;99629.10;;;23.76;53.17
37291;BME280;23175;-33.706;151.094;2024-01-10T08:26:35;99631.81;;;23.08;53.37
37291;BME280;23175;-33.706;151.094;2024-01-10T08:29:06;99637.41;;;24.39;51.57
37291;BME280;23175;-33.706;151.094;2024-01-10T08:31:38;99636.70;;;22.28;53.98
37291;BME280;23175;-33.706;151.094;2024-01-10T08:34:07;99636.59;;;24.99;49.86
37291;BME280;23175;-33.706;151.094;2024-01-10T08:36:40;99638.85;;;22.62;53.73
37291;BME280;23175;-33.706;151.094;2024-01-10T08:39:13;99644.26;;;24.74;51.09
37291;BME280;23175;-33.706;151.094;2024-01-10T08:41:44;99657.94;;;21.70;56.20
37291;BME280;23175;-33.706;151.094;2024-01-10T08:44:15;99659.32;;;21.84;56.11
37291;BME280;23175;-33.706;151.094;2024-01-10T08:46:50;99660.92;;;21.00;59.21
37291;BME280;23175;-33.706;151.094;2024-01-10T08:49:20;99663.87;;;20.88;59.91
37291;BME280;23175;-33.706;151.094;2024-01-10T08:51:53;99674.02;;;20.86;60.01
37291;BME280;23175;-33.706;151.094;2024-01-10T08:54:23;99675.28;;;21.59;58.85
37291;BME280;23175;-33.706;151.094;2024-01-10T08:56:54;99674.87;;;22.55;57.50
37291;BME280;23175;-33.706;151.094;2024-01-10T08:59:26;99685.79;;;21.35;57.40
37291;BME280;23175;-33.706;151.094;2024-01-10T09:01:56;99687.94;;;20.47;61.68
37291;BME280;23175;-33.706;151.094;2024-01-10T09:04:26;99689.48;;;22.05;57.89
37291;BME280;23175;-33.706;151.094;2024-01-10T09:06:57;99695.22;;;22.33;57.49
37291;BME280;23175;-33.706;151.094;2024-01-10T09:09:27;99700.13;;;22.94;55.72
37291;BME280;23175;-33.706;151.094;2024-01-10T09:11:57;99704.53;;;23.52;53.84
37291;BME280;23175;-33.706;151.094;2024-01-10T09:14:29;99707.13;;;23.14;54.57
37291;BME280;23175;-33.706;151.094;2024-01-10T09:17:00;99707.89;;;23.66;53.59
37291;BME280;23175;-33.706;151.094;2024-01-10T09:19:31;99706.65;;;23.62;52.90
37291;BME280;23175;-33.706;151.094;2024-01-10T09:22:01;99709.61;;;23.70;52.25
37291;BME280;23175;-33.706;151.094;2024-01-10T09:24:31;99716.50;;;25.58;48.68
37291;BME280;23175;-33.706;151.094;2024-01-10T09:27:04;99719.56;;;25.42;48.29
37291;BME280;23175;-33.706;151.094;2024-01-10T09:29:35;99720.99;;;22.03;53.80
37291;BME280;23175;-33.706;151.094;2024-01-10T09:32:07;99719.00;;;19.98;59.79
37291;BME280;23175;-33.706;151.094;2024-01-10T09:34:37;99716.77;;;23.15;53.99
37291;BME280;23175;-33.706;151.094;2024-01-10T09:37:08;99722.23;;;23.23;53.45
37291;BME280;23175;-33.706;151.094;2024-01-10T09:39:38;99730.75;;;20.98;58.44
37291;BME280;23175;-33.706;151.094;2024-01-10T09:42:09;99730.90;;;20.95;58.42
37291;BME280;23175;-33.706;151.094;2024-01-10T09:44:39;99728.96;;;23.53;52.72
37291;BME280;23175;-33.706;151.094;2024-01-10T09:47:10;99730.36;;;22.44;55.94
37291;BME280;23175;-33.706;151.094;2024-01-10T09:49:41;99727.36;;;25.21;50.45
37291;BME280;23175;-33.706;151.094;2024-01-10T09:52:14;99739.72;;;22.45;54.64
37291;BME280;23175;-33.706;151.094;2024-01-10T09:54:48;99747.27;;;22.90;52.90
37291;BME280;23175;-33.706;151.094;2024-01-10T09:57:22;99747.18;;;21.20;57.21
37291;BME280;23175;-33.706;151.094;2024-01-10T09:59:52;99738.23;;;21.95;56.75
37291;BME280;23175;-33.706;151.094;2024-01-10T10:02:23;99729.94;;;22.62;56.25
37291;BME280;23175;-33.706;151.094;2024-01-10T10:04:59;99733.89;;;21.36;56.75
37291;BME280;23175;-33.706;151.094;2024-01-10T10:07:40;99733.38;;;19.96;60.07
37291;BME280;23175;-33.706;151.094;2024-01-10T10:10:13;99729.98;;;21.78;57.31
37291;BME280;23175;-33.706;151.094;2024-01-10T10:12:47;99719.87;;;25.18;50.04
37291;BME280;23175;-33.706;151.094;2024-01-10T10:15:20;99721.12;;;24.64;50.37
37291;BME280;23175;-33.706;151.094;2024-01-10T10:17:52;99721.58;;;24.72;49.87
37291;BME280;23175;-33.706;151.094;2024-01-10T10:20:23;99722.05;;;24.03;50.49
37291;BME280;23175;-33.706;151.094;2024-01-10T10:23:06;99718.07;;;24.25;50.74
37291;BME280;23175;-33.706;151.094;2024-01-10T10:25:37;99717.78;;;21.85;54.01
37291;BME280;23175;-33.706;151.094;2024-01-10T10:28:12;99722.60;;;23.71;50.91
37291;BME280;23175;-33.706;151.094;2024-01-10T10:30:43;99723.85;;;25.09;49.51
37291;BME280;23175;-33.706;151.094;2024-01-10T10:33:16;99728.47;;;21.44;56.02
37291;BME280;23175;-33.706;151.094;2024-01-10T10:35:47;99727.13;;;20.95;58.89
37291;BME280;23175;-33.706;151.094;2024-01-10T10:38:23;99722.24;;;22.15;55.94
37291;BME280;23175;-33.706;151.094;2024-01-10T10:40:53;99725.16;;;24.37;51.85
37291;BME280;23175;-33.706;151.094;2024-01-10T10:43:23;99721.31;;;23.17;52.74
37291;BME280;23175;-33.706;151.094;2024-01-10T10:45:54;99723.11;;;20.86;56.39
37291;BME280;23175;-33.706;151.094;2024-01-10T10:48:27;99715.17;;;24.54;50.84
37291;BME280;23175;-33.706;151.094;2024-01-10T10:51:05;99716.89;;;23.21;52.93
37291;BME280;23175;-33.706;151.094;2024-01-10T10:53:36;99721.26;;;19.29;60.67
37291;BME280;23175;-33.706;151.094;2024-01-10T10:56:08;99730.61;;;22.52;55.80
37291;BME280;23175;-33.706;151.094;2024-01-10T10:58:41;99731.46;;;23.42;54.56
37291;BME280;23175;-33.706;151.094;2024-01-10T11:01:13;99728.06;;;24.60;51.60
37291;BME280;23175;-33.706;151.094;2024-01-10T11:03:42;99734.64;;;22.62;55.62
37291;BME280;23175;-33.706;151.094;2024-01-10T11:06:11;99741.69;;;18.16;64.28
37291;BME280;23175;-33.706;151.094;2024-01-10T11:08:45;99744.87;;;19.44;64.04
37291;BME280;23175;-33.706;151.094;2024-01-10T11:11:38;99750.79;;;18.40;65.90
37291;BME280;23175;-33.706;151.094;2024-01-10T11:14:25;99757.14;;;23.65;55.03
37291;BME280;23175;-33.706;151.094;2024-01-10T11:17:19;99759.72;;;23.84;53.21
37291;BME280;23175;-33.706;151.094;2024-01-10T11:20:16;99768.43;;;18.29;64.80
37291;BME280;23175;-33.706;151.094;2024-01-10T11:23:04;99765.37;;;24.66;52.68
37291;BME280;23175;-33.706;151.094;2024-01-10T11:25:39;99762.13;;;25.51;50.14
37291;BME280;23175;-33.706;151.094;2024-01-10T11:28:09;99764.23;;;22.26;54.44
37291;BME280;23175;-33.706;151.094;2024-01-10T11:30:51;99761.42;;;25.56;49.39
37291;BME280;23175;-33.706;151.094;2024-01-10T11:33:22;99762.23;;;25.30;49.09
37291;BME280;23175;-33.706;151.094;2024-01-10T11:36:09;99765.86;;;23.92;51.80
37291;BME280;23175;-33.706;151.094;2024-01-10T11:38:43;99755.14;;;25.66;48.55
37291;BME280;23175;-33.706;151.094;2024-01-10T11:41:19;99749.95;;;25.09;49.62
37291;BME280;23175;-33.706;151.094;2024-01-10T11:44:27;99745.57;;;25.41;49.01
37291;BME280;23175;-33.706;151.094;2024-01-10T11:46:58;99748.33;;;24.48;50.74
37291;BME280;23175;-33.706;151.094;2024-01-10T11:49:29;99746.85;;;24.38;50.49
37291;BME280;23175;-33.706;151.094;2024-01-10T11:52:00;99744.65;;;25.01;49.56
37291;BME280;23175;-33.706;151.094;2024-01-10T11:54:40;99742.79;;;24.08;50.44
37291;BME280;23175;-33.706;151.094;2024-01-10T11:57:14;99738.86;;;24.68;49.86
37291;BME280;23175;-33.706;151.094;2024-01-10T11:59:50;99738.64;;;26.44;46.98
37291;BME280;23175;-33.706;151.094;2024-01-10T12:02:22;99738.69;;;25.89;46.72
37291;BME280;23175;-33.706;151.094;2024-01-10T12:04:52;99742.35;;;25.66;46.96
37291;BME280;23175;-33.706;151.094;2024-01-10T12:07:23;99740.53;;;26.47;46.24
37291;BME280;23175;-33.706;151.094;2024-01-10T12:09:53;99738.16;;;23.11;50.87
37291;BME280;23175;-33.706;151.094;2024-01-10T12:12:23;99732.81;;;25.46;47.33
37291;BME280;23175;-33.706;151.094;2024-01-10T12:14:53;99727.07;;;25.99;46.38
37291;BME280;23175;-33.706;151.094;2024-01-10T12:17:28;99719.98;;;25.98;46.27
37291;BME280;23175;-33.706;151.094;2024-01-10T12:19:58;99728.12;;;26.13;46.13
37291;BME280;23175;-33.706;151.094;2024-01-10T12:22:30;99740.49;;;25.74;46.57
37291;BME280;23175;-33.706;151.094;2024-01-10T12:25:06;99752.42;;;26.01;46.19
37291;BME280;23175;-33.706;151.094;2024-01-10T12:27:37;99756.96;;;25.94;46.18
37291;BME280;23175;-33.706;151.094;2024-01-10T12:30:08;99758.54;;;25.63;46.56
37291;BME280;23175;-33.706;151.094;2024-01-10T12:32:38;99762.06;;;25.55;46.77
37291;BME280;23175;-33.706;151.094;2024-01-10T12:35:08;99763.49;;;25.70;46.52
37291;BME280;23175;-33.706;151.094;2024-01-10T12:37:38;99765.45;;;25.62;46.79
37291;BME280;23175;-33.706;151.094;2024-01-10T12:40:10;99770.49;;;25.64;46.72
37291;BME280;23175;-33.706;151.094;2024-01-10T12:42:40;99771.73;;;25.81;46.29
37291;BME280;23175;-33.706;151.094;2024-01-10T12:45:22;99773.47;;;25.77;46.67
37291;BME280;23175;-33.706;151.094;2024-01-10T12:47:54;99777.17;;;25.05;47.18
37291;BME280;23175;-33.706;151.094;2024-01-10T12:50:24;99784.26;;;24.81;47.94
37291;BME280;23175;-33.706;151.094;2024-01-10T12:52:55;99785.68;;;22.17;54.10